Ursina, Pennsylvania
Current Conditions -  °F | °C
As of 7:20 AM on Sunday 23 Nov 2014 (Local Time) from K2G4 Reporting Station
Clear Clear  
Wind Chill: 38°   Ceiling: Unl
Heat Index: 43°   Visibility: 10mi
Dew Point: 32°   Wind: 8mph
Humidity: 66%   Direction: 220°SW
Pressure: 30.13"   Gusts: NA
Location:  39.82°N, 79.33°W
Report Text: K2G4 231220Z AUTO 22007KT 10SM CLR 06/00 A3013 RMK AO1
Loading
Personal Weather Stations






























Interactive Weather Map New forecast layout! Learn more

10-Day Weather Forecast

Advertisements
Track Severe Weather on mobile